Time;durP1;ratioP1;P1;durP2;ratioP2;P2;SDS_P1;SDS_P2;PMS_P1;PMS_P2;Temp;Humidity;BMP_temperature;BMP_pressure;BME280_temperature;BME280_humidity;BME280_pressure;Samples;Min_cycle;Max_cycle;Signal;HPM_P1;HPM_P2
2022/06/29 00:00:49;;;;;;;1.65;1.40;;;;;;;17.65;51.32;101126.13;4960859;28;20466;-85
2022/06/29 00:03:16;;;;;;;1.40;1.30;;;;;;;17.61;51.74;101125.38;4958565;28;20136;-84
2022/06/29 00:05:43;;;;;;;2.13;1.35;;;;;;;17.58;51.70;101127.22;4960324;28;20050;-87
2022/06/29 00:08:10;;;;;;;1.85;1.08;;;;;;;17.55;51.68;101132.59;4978826;28;20046;-85
2022/06/29 00:10:39;;;;;;;1.05;0.95;;;;;;;17.51;51.85;101124.75;4965347;28;20073;-84
2022/06/29 00:13:06;;;;;;;1.35;1.23;;;;;;;17.47;52.24;101123.13;4968250;28;20129;-83
2022/06/29 00:15:37;;;;;;;4.05;1.85;;;;;;;17.50;52.07;101128.31;4960747;28;20061;-85
2022/06/29 00:18:07;;;;;;;2.10;1.00;;;;;;;17.48;52.09;101123.97;4966341;28;20045;-84
2022/06/29 00:20:35;;;;;;;1.48;1.38;;;;;;;17.45;52.22;101124.09;4981229;28;20046;-87
2022/06/29 00:23:02;;;;;;;2.17;1.13;;;;;;;17.42;52.40;101124.19;4955990;28;20053;-85
2022/06/29 00:25:29;;;;;;;3.53;0.80;;;;;;;17.38;52.52;101126.06;4964066;28;20084;-86
2022/06/29 00:27:56;;;;;;;5.15;1.42;;;;;;;17.35;52.70;101123.47;4977730;28;20077;-84
2022/06/29 00:30:26;;;;;;;1.00;0.70;;;;;;;17.32;52.96;101123.59;4966142;28;20169;-85
2022/06/29 00:32:53;;;;;;;2.35;1.08;;;;;;;17.26;52.75;101119.34;4963124;28;20485;-85
2022/06/29 00:35:30;;;;;;;1.80;1.27;;;;;;;17.24;53.37;101125.59;4960919;28;20066;-85
2022/06/29 00:38:03;;;;;;;0.98;0.98;;;;;;;17.18;53.22;101123.97;4964099;28;20054;-86
2022/06/29 00:40:30;;;;;;;1.10;1.00;;;;;;;17.15;53.49;101124.06;4961600;28;20114;-83
2022/06/29 00:42:57;;;;;;;4.90;1.52;;;;;;;17.10;53.74;101126.84;4963841;28;20057;-84
2022/06/29 00:45:24;;;;;;;1.70;1.33;;;;;;;17.11;53.96;101130.38;4962498;28;20042;-85
2022/06/29 00:47:51;;;;;;;3.65;1.20;;;;;;;17.09;53.93;101126.88;4976296;28;20062;-84
2022/06/29 00:50:18;;;;;;;3.70;1.00;;;;;;;17.03;54.12;101126.16;4958080;28;20058;-85
2022/06/29 00:52:46;;;;;;;3.08;1.48;;;;;;;16.98;54.45;101132.50;4965835;28;20042;-85
2022/06/29 00:55:19;;;;;;;0.85;0.85;;;;;;;16.92;54.72;101127.38;4959351;28;20472;-84
2022/06/29 00:57:55;;;;;;;0.93;0.90;;;;;;;16.84;55.16;101122.25;4960938;28;20074;-85
2022/06/29 01:00:22;;;;;;;1.60;1.35;;;;;;;16.80;55.25;101120.63;4967758;28;20077;-83
2022/06/29 01:02:49;;;;;;;0.98;0.80;;;;;;;16.74;55.24;101126.94;4981422;28;20046;-85
2022/06/29 01:05:16;;;;;;;1.95;1.08;;;;;;;16.70;55.92;101122.66;4957318;28;20062;-84
2022/06/29 01:07:45;;;;;;;1.10;1.10;;;;;;;16.68;55.78;101119.16;4979422;28;20046;-84
2022/06/29 01:10:12;;;;;;;1.17;1.17;;;;;;;16.65;56.16;101120.13;4958786;28;20061;-85
2022/06/29 01:12:41;;;;;;;1.83;1.67;;;;;;;16.65;56.31;101127.19;4965380;28;20061;-84
2022/06/29 01:15:10;;;;;;;4.10;1.33;;;;;;;16.61;56.62;101126.41;4971161;28;20057;-85
2022/06/29 01:17:40;;;;;;;4.40;1.55;;;;;;;16.57;57.30;101124.75;4965315;28;20046;-84
2022/06/29 01:20:09;;;;;;;1.05;1.05;;;;;;;16.54;57.60;101120.41;4966986;28;20057;-84
2022/06/29 01:22:36;;;;;;;1.02;1.02;;;;;;;16.50;57.92;101121.41;4985367;28;20452;-84
2022/06/29 01:25:06;;;;;;;1.50;0.90;;;;;;;16.45;58.09;101115.38;4970933;28;20077;-85
2022/06/29 01:27:33;;;;;;;1.77;1.65;;;;;;;16.39;58.40;101112.88;4986640;28;20046;-85
2022/06/29 01:30:02;;;;;;;1.67;1.38;;;;;;;16.38;58.62;101108.50;4973004;28;20111;-83
2022/06/29 01:32:29;;;;;;;2.30;1.30;;;;;;;16.34;58.58;101114.78;4972999;28;20233;-86
2022/06/29 01:34:56;;;;;;;3.17;1.67;;;;;;;16.29;58.91;101101.66;4989675;28;20054;-84
2022/06/29 01:37:23;;;;;;;1.48;1.15;;;;;;;16.25;58.91;101107.94;4971686;28;20051;-84
2022/06/29 01:39:50;;;;;;;1.42;1.40;;;;;;;16.22;58.94;101110.69;4975190;28;20058;-83
2022/06/29 01:42:17;;;;;;;3.35;1.35;;;;;;;16.22;59.05;101102.75;4965798;28;20042;-85
2022/06/29 01:44:46;;;;;;;4.20;1.95;;;;;;;16.19;59.15;101100.16;4974168;28;20042;-86
2022/06/29 01:47:14;;;;;;;1.35;1.00;;;;;;;16.16;59.32;101101.13;4964386;28;20110;-84
2022/06/29 01:49:41;;;;;;;2.72;1.70;;;;;;;16.15;58.82;101093.22;4964767;28;20038;-85
2022/06/29 01:52:18;;;;;;;3.08;1.40;;;;;;;16.11;58.84;101089.78;4967985;28;20061;-85
2022/06/29 01:54:45;;;;;;;4.22;1.95;;;;;;;16.08;59.09;101089.03;4968024;28;20054;-85
2022/06/29 01:57:18;;;;;;;3.60;1.50;;;;;;;16.07;59.13;101089.94;4979752;28;20084;-85
2022/06/29 01:59:45;;;;;;;1.95;1.38;;;;;;;16.04;59.31;101101.44;4982356;28;20077;-85
2022/06/29 02:02:12;;;;;;;3.60;1.48;;;;;;;16.03;59.24;101097.06;4967928;28;20046;-84
2022/06/29 02:04:42;;;;;;;1.50;1.40;;;;;;;16.02;59.08;101090.03;4982688;28;20061;-84
2022/06/29 02:07:09;;;;;;;3.75;1.60;;;;;;;16.01;59.30;101086.53;4981064;28;20042;-84
2022/06/29 02:09:41;;;;;;;1.55;1.35;;;;;;;16.01;59.18;101089.16;4972506;28;20046;-85
2022/06/29 02:12:11;;;;;;;2.50;1.58;;;;;;;15.99;59.52;101083.03;4974504;28;20039;-85
2022/06/29 02:14:38;;;;;;;4.88;1.63;;;;;;;15.97;59.23;101070.78;4963237;28;20050;-86
2022/06/29 02:17:04;;;;;;;2.15;1.55;;;;;;;15.96;59.21;101067.28;4969130;28;20110;-83
2022/06/29 02:19:31;;;;;;;2.50;1.85;;;;;;;15.96;59.28;101069.94;4966107;28;20104;-84
2022/06/29 02:21:58;;;;;;;1.90;1.50;;;;;;;15.98;59.05;101072.53;4968442;28;20117;-84
2022/06/29 02:24:25;;;;;;;2.83;1.40;;;;;;;15.95;59.23;101059.41;5003838;28;20042;-84
2022/06/29 02:26:52;;;;;;;2.13;1.33;;;;;;;15.97;59.11;101068.16;4964631;28;20042;-83
2022/06/29 02:29:22;;;;;;;3.47;1.60;;;;;;;15.97;59.33;101069.03;4966023;28;20050;-84
2022/06/29 02:34:46;;;;;;;2.05;1.30;;;;;;;15.99;59.18;101072.47;4973395;28;20022;-84
2022/06/29 02:37:15;;;;;;;1.67;1.55;;;;;;;15.99;59.38;101066.34;4985666;28;20054;-83
2022/06/29 02:39:44;;;;;;;2.63;2.30;;;;;;;16.00;59.44;101058.38;4964674;28;20074;-83
2022/06/29 02:42:13;;;;;;;2.13;1.83;;;;;;;16.00;59.33;101055.75;4950961;28;20050;-83
2022/06/29 02:44:41;;;;;;;3.42;1.80;;;;;;;15.99;59.57;101050.50;4966204;28;20386;-84
2022/06/29 02:47:12;;;;;;;2.53;2.38;;;;;;;16.01;59.63;101048.72;4969045;28;20042;-84
2022/06/29 02:49:40;;;;;;;1.90;1.42;;;;;;;16.02;59.69;101053.06;4968548;28;20094;-84
2022/06/29 02:52:07;;;;;;;3.38;2.00;;;;;;;16.01;59.68;101057.47;4998200;28;20046;-84
2022/06/29 02:54:37;;;;;;;3.50;1.95;;;;;;;15.99;59.84;101053.16;4964987;28;20042;-83
2022/06/29 02:57:07;;;;;;;1.30;1.17;;;;;;;15.96;60.16;101055.88;4964600;28;20058;-84
2022/06/29 02:59:34;;;;;;;1.75;1.63;;;;;;;15.92;60.31;101046.28;4977578;28;20052;-82
2022/06/29 03:02:02;;;;;;;1.83;1.60;;;;;;;15.90;60.51;101056.03;4964023;28;20038;-84
2022/06/29 03:04:29;;;;;;;1.83;1.67;;;;;;;15.84;60.96;101049.13;4967673;28;20085;-85
2022/06/29 03:06:59;;;;;;;3.30;2.22;;;;;;;15.78;61.20;101046.59;4984507;28;20057;-86
2022/06/29 03:09:26;;;;;;;3.40;1.90;;;;;;;15.72;61.24;101039.69;4982319;28;20027;-85
2022/06/29 03:11:53;;;;;;;3.33;2.33;;;;;;;15.69;61.52;101047.69;4963449;28;20140;-86
2022/06/29 03:14:20;;;;;;;1.42;1.33;;;;;;;15.67;61.82;101037.16;4959919;28;20042;-84
2022/06/29 03:16:47;;;;;;;3.85;2.30;;;;;;;15.69;62.00;101034.47;4972578;28;20073;-83
2022/06/29 03:19:14;;;;;;;4.45;1.80;;;;;;;15.65;61.86;101036.31;4971277;28;20098;-86
2022/06/29 03:21:40;;;;;;;3.88;2.40;;;;;;;15.67;62.13;101041.56;4961248;28;20039;-83
2022/06/29 03:24:07;;;;;;;1.83;1.70;;;;;;;15.63;62.20;101040.78;4961107;28;20438;-84
2022/06/29 03:26:34;;;;;;;4.00;2.30;;;;;;;15.62;62.19;101049.59;4964085;28;20090;-85
2022/06/29 03:29:01;;;;;;;6.10;2.45;;;;;;;15.64;62.67;101057.47;4963812;28;20576;-85
2022/06/29 03:31:28;;;;;;;3.38;2.10;;;;;;;15.65;62.88;101053.94;4959703;28;20069;-84
2022/06/29 03:33:55;;;;;;;7.20;2.42;;;;;;;15.68;62.69;101049.47;4964302;28;20106;-85
2022/06/29 03:36:22;;;;;;;5.55;2.33;;;;;;;15.68;62.75;101043.28;4960118;28;20053;-85
2022/06/29 03:38:49;;;;;;;4.15;2.65;;;;;;;15.66;63.08;101029.28;4973957;28;20061;-85
2022/06/29 03:41:15;;;;;;;3.65;1.88;;;;;;;15.67;63.21;101033.63;4955470;28;20110;-86
2022/06/29 03:43:42;;;;;;;2.53;2.20;;;;;;;15.67;63.10;101033.63;4975176;28;20061;-86
2022/06/29 03:46:09;;;;;;;8.73;2.90;;;;;;;15.67;63.38;101023.09;4960476;28;20046;-87
2022/06/29 03:48:36;;;;;;;3.75;2.60;;;;;;;15.65;63.30;101027.56;4958044;28;20042;-86
2022/06/29 03:51:03;;;;;;;3.70;2.25;;;;;;;15.66;63.37;101029.28;4958694;28;20046;-86
2022/06/29 03:53:30;;;;;;;2.20;2.10;;;;;;;15.66;63.77;101029.28;4972330;28;20046;-87
2022/06/29 03:55:57;;;;;;;2.33;2.05;;;;;;;15.68;63.27;101028.34;4975226;28;20068;-85
2022/06/29 03:58:24;;;;;;;3.53;2.17;;;;;;;15.71;63.61;101027.41;4960501;28;20335;-88
2022/06/29 04:00:51;;;;;;;3.38;2.38;;;;;;;15.74;63.43;101032.59;4973239;28;20050;-85
2022/06/29 04:03:18;;;;;;;4.20;2.38;;;;;;;15.78;63.46;101033.41;4977558;28;20053;-84
2022/06/29 04:05:47;;;;;;;5.25;2.03;;;;;;;15.81;63.21;101023.69;4961530;28;20046;-88
2022/06/29 04:08:14;;;;;;;3.28;1.98;;;;;;;15.84;63.48;101035.94;4967727;28;20054;-86
2022/06/29 04:10:50;;;;;;;4.55;2.15;;;;;;;15.87;63.36;101033.19;4968224;28;20102;-84
2022/06/29 04:13:26;;;;;;;2.35;2.17;;;;;;;15.95;63.11;101046.22;4966508;28;20065;-85
2022/06/29 04:15:54;;;;;;;2.80;2.25;;;;;;;16.00;62.82;101039.91;4981604;28;20047;-84
2022/06/29 04:18:26;;;;;;;5.95;1.77;;;;;;;16.08;63.04;101037.06;4967429;28;20167;-86
2022/06/29 04:21:10;;;;;;;2.67;1.67;;;;;;;16.17;62.57;101042.09;4961168;28;20564;-86
2022/06/29 04:23:47;;;;;;;2.90;2.63;;;;;;;16.23;62.59;101040.22;4969102;28;20070;-84
2022/06/29 04:26:14;;;;;;;2.40;1.67;;;;;;;16.25;62.32;101043.69;4953889;28;20042;-86
2022/06/29 04:28:44;;;;;;;2.30;2.08;;;;;;;16.32;62.34;101039.97;4977603;28;20093;-86
2022/06/29 04:31:12;;;;;;;1.98;1.88;;;;;;;16.35;62.04;101034.63;4971193;28;20049;-88
2022/06/29 04:33:40;;;;;;;4.72;2.30;;;;;;;16.37;62.07;101038.94;4955505;28;20453;-85
2022/06/29 04:36:10;;;;;;;3.88;2.17;;;;;;;16.40;62.02;101053.84;4955766;28;20405;-88
2022/06/29 04:38:37;;;;;;;3.70;2.00;;;;;;;16.40;62.26;101045.03;4961359;28;20054;-86
2022/06/29 04:41:04;;;;;;;3.25;2.00;;;;;;;16.40;62.04;101040.66;4963191;28;20050;-85
2022/06/29 04:43:31;;;;;;;2.22;2.13;;;;;;;16.34;62.23;101043.44;4954226;28;20059;-86
2022/06/29 04:48:47;;;;;;;3.78;2.03;;;;;;;16.25;62.71;101041.06;4967722;28;20168;-86
2022/06/29 04:51:16;;;;;;;2.78;2.58;;;;;;;16.23;62.85;101033.16;4981700;28;20105;-86
2022/06/29 04:53:53;;;;;;;1.80;1.70;;;;;;;16.28;62.79;101031.28;4960800;28;20137;-86
2022/06/29 04:56:22;;;;;;;1.73;1.63;;;;;;;16.27;62.38;101032.19;4959975;28;20117;-86
2022/06/29 04:58:53;;;;;;;2.10;1.85;;;;;;;16.30;62.74;101031.22;4959675;28;20222;-88
2022/06/29 05:01:24;;;;;;;2.42;2.22;;;;;;;16.31;62.75;101030.28;4971794;28;20096;-86
2022/06/29 05:03:53;;;;;;;2.20;2.03;;;;;;;16.32;62.28;101035.56;4958633;28;20170;-86
2022/06/29 05:06:24;;;;;;;1.80;1.70;;;;;;;16.36;62.36;101036.31;4958986;28;20046;-86
2022/06/29 05:08:53;;;;;;;3.53;1.92;;;;;;;16.43;62.10;101027.34;4975435;28;20046;-88
2022/06/29 05:11:22;;;;;;;2.35;1.85;;;;;;;16.55;61.94;101031.41;4964297;28;20042;-86
2022/06/29 05:13:49;;;;;;;2.85;1.98;;;;;;;16.69;61.38;101033.69;4964703;28;20113;-86
2022/06/29 05:16:17;;;;;;;2.75;2.10;;;;;;;16.83;60.78;101033.25;4962681;28;20081;-85
2022/06/29 05:18:44;;;;;;;2.13;1.60;;;;;;;17.00;60.25;101033.69;4963241;28;20046;-85
2022/06/29 05:21:12;;;;;;;5.60;2.03;;;;;;;17.23;59.99;101026.81;4961201;28;20062;-85
2022/06/29 05:23:39;;;;;;;4.95;2.22;;;;;;;17.47;59.17;101019.03;4977461;28;20125;-88
2022/06/29 05:26:06;;;;;;;4.20;1.85;;;;;;;17.59;58.64;101021.28;4965402;28;20043;-86
2022/06/29 05:28:36;;;;;;;1.40;1.40;;;;;;;17.69;58.41;101009.50;4960457;28;20077;-88
2022/06/29 05:31:05;;;;;;;6.53;1.92;;;;;;;17.83;57.74;101009.03;4973379;28;20054;-86
2022/06/29 05:33:39;;;;;;;4.57;1.77;;;;;;;17.94;57.48;101007.81;4977311;28;20073;-85
2022/06/29 05:36:10;;;;;;;;;;;;;;;17.96;56.66;101006.84;4956666;28;20101;-82
2022/06/29 05:38:52;;;;;;;1.80;1.60;;;;;;;17.95;56.42;101009.56;4988909;28;20007;-81
2022/06/29 05:41:27;;;;;;;4.85;2.00;;;;;;;17.98;56.61;101009.47;4957363;28;20152;-82
2022/06/29 05:43:54;;;;;;;3.88;1.67;;;;;;;18.05;55.98;101010.13;4948510;28;20042;-82
2022/06/29 05:46:22;;;;;;;7.13;1.60;;;;;;;18.03;56.26;101007.53;4974689;28;20724;-82
2022/06/29 05:48:52;;;;;;;1.77;1.33;;;;;;;18.02;55.81;101011.09;4948831;28;20134;-81
2022/06/29 05:51:18;;;;;;;2.47;1.83;;;;;;;18.00;56.00;101005.84;4960260;28;20049;-81
2022/06/29 05:53:47;;;;;;;2.47;1.70;;;;;;;18.04;55.89;101008.38;4951989;28;20046;-82
2022/06/29 05:56:14;;;;;;;2.22;1.77;;;;;;;18.08;56.07;101005.59;4954612;28;20061;-80
2022/06/29 05:58:44;;;;;;;2.65;2.45;;;;;;;18.12;55.73;101004.56;4952742;28;20056;-80
2022/06/29 06:01:13;;;;;;;2.90;2.28;;;;;;;18.18;55.61;100993.72;4970923;28;20057;-81
2022/06/29 06:03:42;;;;;;;2.47;1.70;;;;;;;18.26;55.28;100995.25;4956923;28;20393;-82
2022/06/29 06:06:12;;;;;;;3.03;1.98;;;;;;;18.31;55.10;101006.56;4956085;28;20110;-80
2022/06/29 06:08:38;;;;;;;6.10;2.35;;;;;;;18.38;54.72;101001.88;4957140;28;20053;-82
2022/06/29 06:11:06;;;;;;;4.07;2.58;;;;;;;18.39;54.91;101000.97;4958020;28;20038;-85
2022/06/29 06:13:33;;;;;;;3.42;2.08;;;;;;;18.41;54.96;100997.34;4957670;28;20104;-80
2022/06/29 06:16:00;;;;;;;2.50;1.85;;;;;;;18.48;55.01;101000.63;4956788;28;20572;-83
2022/06/29 06:18:27;;;;;;;1.50;1.40;;;;;;;18.64;54.71;100998.28;4974899;28;20104;-81
2022/06/29 06:20:54;;;;;;;2.83;1.67;;;;;;;18.76;54.38;100996.94;4954809;28;20084;-80
2022/06/29 06:23:21;;;;;;;5.20;2.22;;;;;;;18.89;54.13;100994.69;4951438;28;20053;-82
2022/06/29 06:25:49;;;;;;;4.57;2.55;;;;;;;19.03;53.88;100992.41;4956569;28;20050;-81
2022/06/29 06:28:17;;;;;;;4.60;2.92;;;;;;;19.12;53.64;100997.34;4955894;28;20132;-83
2022/06/29 06:30:43;;;;;;;2.45;2.25;;;;;;;19.22;53.73;100997.03;4967526;28;20695;-81
2022/06/29 06:33:10;;;;;;;5.10;2.33;;;;;;;19.36;53.28;100993.78;4947484;28;20110;-81
2022/06/29 06:35:37;;;;;;;2.95;2.08;;;;;;;19.51;52.89;100987.88;4951160;28;20129;-81
2022/06/29 06:38:04;;;;;;;3.33;2.50;;;;;;;19.64;52.90;100989.06;4950649;28;20055;-82
2022/06/29 06:43:15;;;;;;;5.43;3.05;;;;;;;19.82;52.69;100990.13;4971059;28;20042;-82
2022/06/29 06:45:42;;;;;;;2.38;2.17;;;;;;;19.86;52.97;100987.38;4956966;28;20046;-80
2022/06/29 06:48:09;;;;;;;5.78;2.65;;;;;;;19.89;53.21;100992.53;4950738;28;20059;-79
2022/06/29 06:50:36;;;;;;;3.78;2.75;;;;;;;19.91;53.53;100988.03;4955506;28;20055;-80
2022/06/29 06:53:03;;;;;;;5.00;2.53;;;;;;;19.89;54.06;100987.22;4970778;28;20042;-80
2022/06/29 06:55:30;;;;;;;5.10;2.65;;;;;;;19.89;54.36;100992.53;4973876;28;20092;-81
2022/06/29 06:57:57;;;;;;;2.65;2.40;;;;;;;19.90;54.79;100995.13;4960440;28;20042;-79
2022/06/29 07:00:24;;;;;;;2.83;2.63;;;;;;;19.98;54.86;100993.00;4975429;28;20109;-81
2022/06/29 07:02:51;;;;;;;4.28;2.28;;;;;;;20.08;54.67;100992.63;4971857;28;21235;-81
2022/06/29 07:05:19;;;;;;;3.72;2.33;;;;;;;20.22;54.69;100984.91;4969079;28;20568;-82
2022/06/29 07:07:47;;;;;;;2.80;2.60;;;;;;;20.41;54.88;100986.75;4952911;28;20402;-81
2022/06/29 07:10:17;;;;;;;5.90;3.17;;;;;;;20.60;54.53;100986.78;4972668;28;20133;-79
2022/06/29 07:12:44;;;;;;;3.53;2.45;;;;;;;20.79;54.22;100981.47;4972745;28;20117;-80
2022/06/29 07:15:11;;;;;;;2.45;2.10;;;;;;;21.03;53.94;100981.25;4970296;28;20505;-80
2022/06/29 07:17:38;;;;;;;5.10;2.70;;;;;;;21.24;53.70;100974.91;4960138;28;20137;-82
2022/06/29 07:20:06;;;;;;;4.25;2.70;;;;;;;21.39;53.42;100978.59;4962962;28;20034;-81
2022/06/29 07:22:33;;;;;;;2.90;2.25;;;;;;;21.61;53.06;100980.25;4958727;28;20061;-81
2022/06/29 07:25:00;;;;;;;2.10;1.92;;;;;;;21.85;52.66;100972.84;4987095;28;20085;-80
2022/06/29 07:27:27;;;;;;;2.45;2.20;;;;;;;22.21;51.87;100981.66;4962112;28;20047;-81
2022/06/29 07:29:54;;;;;;;4.55;2.40;;;;;;;22.60;51.26;100985.84;4955888;28;20053;-83
2022/06/29 07:32:25;;;;;;;6.85;2.40;;;;;;;22.95;50.52;100969.69;4959878;28;20166;-83
2022/06/29 07:34:52;;;;;;;5.32;2.60;;;;;;;23.13;50.02;100975.81;4954423;28;20138;-81
2022/06/29 07:37:19;;;;;;;3.70;2.83;;;;;;;23.24;50.20;100985.91;4969747;28;20038;-80
2022/06/29 07:39:46;;;;;;;5.40;2.55;;;;;;;23.43;49.88;100975.03;4956135;28;20123;-81
2022/06/29 07:42:12;;;;;;;3.03;2.83;;;;;;;23.87;48.91;100978.69;4970993;28;20081;-80
2022/06/29 07:44:42;;;;;;;4.63;2.45;;;;;;;24.31;48.23;100975.16;4969124;28;20129;-80
2022/06/29 07:47:08;;;;;;;5.70;2.22;;;;;;;24.72;47.41;100974.41;4949614;28;20051;-81
2022/06/29 07:49:35;;;;;;;4.20;2.80;;;;;;;25.24;46.28;100966.66;4958410;28;20101;-80
2022/06/29 07:52:02;;;;;;;4.30;2.50;;;;;;;25.57;45.64;100968.06;4954205;28;20112;-81
2022/06/29 07:54:28;;;;;;;2.78;2.15;;;;;;;25.79;45.20;100955.88;4953556;28;20113;-82
2022/06/29 07:56:55;;;;;;;3.65;2.50;;;;;;;26.18;44.59;100960.34;4951231;28;20054;-82
2022/06/29 07:59:22;;;;;;;2.85;2.65;;;;;;;26.36;43.57;100957.31;4948512;28;20393;-80
2022/06/29 08:01:52;;;;;;;4.10;2.50;;;;;;;26.47;43.83;100948.53;4971186;28;20170;-82
2022/06/29 08:04:18;;;;;;;2.58;2.28;;;;;;;26.68;43.24;100949.63;4965716;28;20112;-81
2022/06/29 08:06:49;;;;;;;2.85;2.65;;;;;;;26.84;42.46;100961.97;4966480;28;20397;-81
2022/06/29 08:09:16;;;;;;;2.40;2.10;;;;;;;26.81;42.06;100946.09;4983940;28;20691;-80
2022/06/29 08:11:42;;;;;;;4.20;1.90;;;;;;;26.76;42.53;100957.16;4966934;28;20062;-83
2022/06/29 08:14:09;;;;;;;3.15;2.38;;;;;;;26.53;43.19;100948.06;4950810;28;20054;-80
2022/06/29 08:16:36;;;;;;;3.83;2.22;;;;;;;25.88;44.20;100955.25;4953842;28;20046;-82
2022/06/29 08:19:03;;;;;;;2.47;1.52;;;;;;;25.30;45.72;100955.50;4966715;28;20062;-81
2022/06/29 08:21:29;;;;;;;3.60;2.65;;;;;;;24.95;46.16;100953.31;4952087;28;20053;-83
2022/06/29 08:23:58;;;;;;;3.10;2.03;;;;;;;24.80;46.64;100947.16;4953673;28;20042;-83
2022/06/29 08:26:25;;;;;;;7.78;2.25;;;;;;;24.78;46.93;100949.06;4953554;28;20080;-81
2022/06/29 08:28:52;;;;;;;2.03;1.92;;;;;;;25.18;46.28;100948.28;4952210;28;20444;-81
2022/06/29 08:31:19;;;;;;;4.88;2.47;;;;;;;25.73;45.03;100946.44;4968095;28;20500;-81
2022/06/29 08:33:46;;;;;;;2.05;1.70;;;;;;;25.97;44.70;100946.56;4954487;28;20135;-81
2022/06/29 08:36:12;;;;;;;3.75;1.95;;;;;;;26.24;44.35;100945.63;4953597;28;20077;-83
2022/06/29 08:38:40;;;;;;;3.72;2.40;;;;;;;26.50;43.71;100934.88;4959537;28;20104;-81
2022/06/29 08:41:08;;;;;;;2.50;2.25;;;;;;;26.65;43.48;100935.56;4963805;28;20104;-83
2022/06/29 08:43:35;;;;;;;2.63;2.40;;;;;;;27.04;42.84;100945.25;4957967;28;20113;-82
2022/06/29 08:46:01;;;;;;;2.75;1.95;;;;;;;27.84;41.40;100938.38;4952066;28;20161;-82
2022/06/29 08:48:30;;;;;;;5.00;2.20;;;;;;;28.25;40.42;100937.97;4952907;28;20097;-80
2022/06/29 08:50:57;;;;;;;7.63;2.47;;;;;;;28.45;39.58;100933.72;4954220;28;20054;-81
2022/06/29 08:53:26;;;;;;;1.55;1.48;;;;;;;27.83;40.14;100943.88;4955714;28;20046;-81
2022/06/29 08:55:55;;;;;;;3.20;1.95;;;;;;;27.84;40.72;100938.38;4952563;28;20070;-84
2022/06/29 08:58:25;;;;;;;2.40;2.30;;;;;;;27.98;40.33;100937.31;4967902;28;20149;-82
2022/06/29 09:00:53;;;;;;;3.15;2.30;;;;;;;28.32;39.25;100933.81;4957341;28;20042;-83
2022/06/29 09:03:22;;;;;;;2.63;2.00;;;;;;;28.60;38.34;100936.97;4982203;28;20045;-81
2022/06/29 09:05:56;;;;;;;3.65;2.40;;;;;;;28.77;37.38;100928.41;4944230;28;20066;-81
2022/06/29 09:08:26;;;;;;;3.75;2.72;;;;;;;28.73;36.94;100931.50;4968180;28;20356;-82
2022/06/29 09:10:53;;;;;;;4.07;2.50;;;;;;;28.44;37.45;100945.44;4948266;28;20051;-82
2022/06/29 09:13:22;;;;;;;5.50;3.00;;;;;;;27.90;38.42;100945.13;4952717;28;20046;-81
2022/06/29 09:16:00;;;;;;;5.65;3.13;;;;;;;27.51;38.39;100953.44;4968113;28;20101;-81
2022/06/29 09:18:34;;;;;;;3.03;2.50;;;;;;;27.22;39.33;100953.78;4967631;28;20049;-84
2022/06/29 09:21:05;;;;;;;3.17;2.50;;;;;;;26.85;39.63;100940.38;4964007;28;20114;-81
2022/06/29 09:23:34;;;;;;;2.47;2.28;;;;;;;27.16;38.93;100948.03;4968341;28;20050;-82
2022/06/29 09:26:02;;;;;;;4.28;2.60;;;;;;;27.23;38.65;100939.38;4951635;28;20050;-82
2022/06/29 09:28:33;;;;;;;4.82;2.75;;;;;;;27.49;38.33;100941.09;4968606;28;20148;-82
2022/06/29 09:31:04;;;;;;;3.00;2.50;;;;;;;27.40;38.14;100943.53;4949003;28;20164;-82
2022/06/29 09:33:38;;;;;;;7.38;3.25;;;;;;;27.39;38.54;100938.25;4966170;28;20493;-83
2022/06/29 09:36:07;;;;;;;2.88;2.65;;;;;;;27.84;38.58;100933.00;4953737;28;20537;-84
2022/06/29 09:38:36;;;;;;;3.97;2.63;;;;;;;28.56;37.62;100930.97;4988974;28;20068;-81
2022/06/29 09:41:10;;;;;;;3.50;2.65;;;;;;;28.65;37.56;100935.66;4961184;28;20030;-81
2022/06/29 09:43:39;;;;;;;3.70;2.67;;;;;;;28.88;37.23;100938.31;4969081;28;20042;-82
2022/06/29 09:46:08;;;;;;;6.22;3.05;;;;;;;28.99;36.33;100926.66;4956708;28;20443;-82
2022/06/29 09:48:40;;;;;;;3.60;3.30;;;;;;;28.90;36.77;100933.66;4967357;28;20041;-81
2022/06/29 09:54:00;;;;;;;3.40;3.05;;;;;;;29.04;36.16;100930.66;4954165;28;20042;-83
2022/06/29 09:56:31;;;;;;;3.88;2.88;;;;;;;29.26;36.11;100930.72;4956318;28;20493;-83
2022/06/29 09:59:00;;;;;;;2.95;2.75;;;;;;;29.47;35.82;100922.69;4969231;28;20042;-82
2022/06/29 10:04:14;;;;;;;6.90;3.22;;;;;;;30.12;35.27;100914.47;4967860;28;20077;-82
2022/06/29 10:06:41;;;;;;;3.28;2.97;;;;;;;29.94;34.95;100916.91;4954461;28;20050;-82
2022/06/29 10:09:07;;;;;;;4.30;3.10;;;;;;;29.71;35.11;100914.31;4953338;28;20439;-82
2022/06/29 10:15:25;;;;;;;3.05;2.85;;;;;;;28.92;36.76;100918.22;4965340;28;20088;-81
2022/06/29 10:18:17;;;;;;;3.75;2.85;;;;;;;29.02;36.92;100910.22;4969956;28;20069;-82
2022/06/29 10:20:48;;;;;;;5.03;2.90;;;;;;;30.27;34.41;100910.41;4951056;28;20058;-82
2022/06/29 10:24:01;;;;;;;3.95;3.50;;;;;;;31.67;32.35;100909.50;4955827;28;20046;-81
2022/06/29 10:26:28;;;;;;;5.87;3.37;;;;;;;32.58;30.92;100908.00;4949938;28;20038;-82
2022/06/29 10:29:06;;;;;;;5.35;3.58;;;;;;;33.26;29.87;100902.16;4989523;28;20497;-83
2022/06/29 10:31:51;;;;;;;4.47;3.05;;;;;;;33.45;29.12;100905.69;4971158;28;20038;-83
2022/06/29 10:34:30;;;;;;;3.20;2.90;;;;;;;34.13;27.44;100910.41;4970904;28;20525;-81
2022/06/29 10:37:11;;;;;;;2.17;2.08;;;;;;;34.03;26.59;100903.38;4987460;28;20046;-82
2022/06/29 10:39:47;;;;;;;4.10;2.60;;;;;;;34.14;27.08;100905.81;4973593;28;20038;-85
2022/06/29 10:45:24;;;;;;;2.78;2.65;;;;;;;34.72;27.47;100911.47;4947968;28;20398;-81
2022/06/29 10:47:54;;;;;;;7.55;3.45;;;;;;;34.94;27.48;100910.88;4953995;28;20054;-82
2022/06/29 10:50:23;;;;;;;2.63;2.53;;;;;;;35.00;26.36;100912.06;4986688;28;20370;-81
2022/06/29 10:53:13;;;;;;;3.53;2.10;;;;;;;33.44;28.08;100901.25;4968108;28;20107;-82
2022/06/29 10:55:55;;;;;;;4.75;2.67;;;;;;;32.58;29.65;100905.28;4982539;28;20421;-83
2022/06/29 10:58:24;;;;;;;3.78;2.97;;;;;;;32.16;30.24;100899.34;4975728;28;20073;-83
2022/06/29 11:00:54;;;;;;;3.55;3.20;;;;;;;31.48;31.48;100902.22;4972411;28;20405;-82
2022/06/29 11:03:26;;;;;;;3.70;3.40;;;;;;;30.61;33.51;100899.31;4956688;28;20104;-82
2022/06/29 11:16:59;;;;;;;5.88;3.83;;;;;;;27.68;39.58;100887.63;4952224;28;20038;-82
2022/06/29 11:19:36;;;;;;;4.80;4.40;;;;;;;27.53;40.50;100886.13;4969297;28;20050;-83
2022/06/29 11:22:18;;;;;;;3.80;3.50;;;;;;;27.11;41.58;100891.06;4954257;28;20086;-82
2022/06/29 11:25:01;;;;;;;3.55;3.25;;;;;;;27.00;41.75;100902.59;4971473;28;20074;-82
2022/06/29 11:27:42;;;;;;;4.25;3.97;;;;;;;26.76;42.30;100895.41;4955986;28;20058;-81
2022/06/29 11:30:13;;;;;;;5.00;3.90;;;;;;;26.57;42.41;100888.66;4976222;28;20837;-88
2022/06/29 11:32:46;;;;;;;4.38;3.88;;;;;;;26.83;42.84;100888.63;4961145;28;20072;-87
2022/06/29 11:35:16;;;;;;;4.53;3.83;;;;;;;28.53;39.78;100872.00;4961109;28;20053;-85
2022/06/29 11:37:48;;;;;;;3.97;3.60;;;;;;;31.15;35.58;100877.34;4955717;28;20047;-85
2022/06/29 11:40:19;;;;;;;4.70;3.60;;;;;;;33.06;32.95;100873.44;4959475;28;20369;-86
2022/06/29 11:45:43;;;;;;;3.05;2.85;;;;;;;37.03;27.45;100881.88;4956553;28;20097;-86
2022/06/29 11:48:28;;;;;;;5.00;3.88;;;;;;;36.43;27.84;100880.72;4968903;28;20054;-87
2022/06/29 11:51:01;;;;;;;3.90;3.60;;;;;;;35.01;29.72;100877.56;4957543;28;20057;-86
2022/06/29 11:53:39;;;;;;;5.82;3.65;;;;;;;34.10;30.98;100877.25;4993969;28;20041;-88
2022/06/29 11:56:18;;;;;;;5.22;2.72;;;;;;;33.68;31.48;100867.19;4967342;28;20082;-86
2022/06/29 11:58:49;;;;;;;3.80;3.08;;;;;;;34.37;30.21;100875.38;4955873;28;20074;-86
2022/06/29 12:01:22;;;;;;;2.70;2.50;;;;;;;34.31;30.21;100885.00;4962412;28;20030;-86
2022/06/29 12:03:55;;;;;;;2.67;2.25;;;;;;;34.84;29.13;100876.72;4946828;28;20054;-90
2022/06/29 12:06:26;;;;;;;3.30;3.03;;;;;;;35.39;27.48;100867.88;4978246;28;20073;-87
2022/06/29 12:08:57;;;;;;;2.92;2.83;;;;;;;35.10;27.55;100877.41;4961347;28;20058;-87